Hlavní strana
METAR-TAF:

METAR-TAF

Letiště :

Mobile, Alabama, Spojené státy americké

zeměpisná šířka: 30-36-50N, zeměpisná délka: 088-03-48W, výška: 7 m

Aktuální stav počasí

Zpráva byla vytvořena před 57 minutami, v 17:53 UTC
Severoseverozápadní vítr 17 kt s nárazy do 20 kt
Teplota 18°C
Vlhkost vzduchu 32%
Tlak 1021 hPa
Viditelnost: 16.1 km
Jasno

METAR: KBFM 151753Z 33017G20KT 10SM CLR 18/01 A3016 RMK AO2 SLP211 T01780006 10178 20072 58021

Čas: 12:50 (18:50 UTC)

Předpověď počasí

Zpráva byla vytvořena před 1 hodinou a 18 minutami, v 17:32 UTC
Předpověď platná od 15 v 18 UTC do 16 v 18 UTC
Severní vítr 15 kt s nárazy do 22 kt
Viditelnost: 10 km
Jasno
Od 16 v 0100 UTC
Severoseverozápadní vítr 10 kt
Viditelnost: 10 km
Jasno

TAF: KBFM 151732Z 1518/1618 35015G22KT P6SM SKC FM160100 34010KT P6SM SKC

Stav a předpovědi počasí z více než 4 000 letišť (zprávy METAR a TAF).

Červené a žluté tečky na mapě představují dostupné meteorologické stanice.

Když kurzor umístíte na tečku, zobrazí se název stanice.

Pak kliknutím zobrazíte stav a předpověď počasí.

Chcete-li změnit mapu, kliknutím na zelené tlačítko se znaménkem +mapu přiblížíte, kliknutím na zelené tlačítko se znaménkem – mapu oddálíte a kliknutím na zelené šipky přejdete na sousední mapy.


METAR-TAF: